OOSA

Salalah International Airport

Airport
ICAO code
OOSA
IATA Code
SLL
Summary
ICAO Region
MID
ICAO Territory
Location

Salalah, Dhofar Governate

Serving
Salalah
Elevation
73 ft
Coordinates
17° 2' 12" N , 54° 5' 18" E
KCC
Metar
Observation
OOSA 270950Z 18010KT 9999 BKN030 29/24 Q1007 NOSIG
Station
Salalah
Date/Time
2022-09-27 09:50:00
Wind direction
180°
Wind speed
10 kts
Lowest cloud amount
broken clouds
Temperature
29°C
Dew point
24°C
Humidity
74%
QNH
1007 hPa
Weather condition
n/a

International airport serving Salalah. It is located on the Salalah coastal plain, 5.5 km northeast of Salalah's city centre.

Climatology

Hot Desert climate (Köppen climate classification BWh). Salalah is subjected to the south-west monsoons. This period (late June to early September) is known as the Khareef season. Visitors from across the Arabian Gulf States, mostly from the United Arab Emirates, and Saudi Arabia flock to Salalah to enjoy the monsoon and avoid the harsh heat faced by the rest of the region during the same period.

Runways

Designator Length Width Surface Rops
17/35 1279 18 GRE Yes/Yes
7/25 3342 45 ASP Yes/Yes

Airport map

Aerial View

SKYbrary Partners:

Safety knowledge contributed by: